Time;durP1;ratioP1;P1;durP2;ratioP2;P2;SDS_P1;SDS_P2;PMS_P1;PMS_P2;Temp;Humidity;BMP_temperature;BMP_pressure;BME280_temperature;BME280_humidity;BME280_pressure;Samples;Min_cycle;Max_cycle;Signal;HPM_P1;HPM_P2
2024/01/19 00:01:19;;;;;;;1.63;1.20;;;;;;;;;;5017690;28;20365;-73
2024/01/19 00:03:45;;;;;;;2.58;1.15;;;;;;;;;;5033327;28;20496;-72
2024/01/19 00:06:10;;;;;;;2.65;1.25;;;;;;;;;;5038152;28;20055;-72
2024/01/19 00:08:35;;;;;;;1.80;1.10;;;;;;;;;;5037762;28;20109;-72
2024/01/19 00:11:01;;;;;;;2.13;1.10;;;;;;;;;;5036452;28;20116;-72
2024/01/19 00:13:27;;;;;;;3.30;1.20;;;;;;;;;;5028689;28;20045;-72
2024/01/19 00:15:53;;;;;;;2.67;1.20;;;;;;;;;;5039064;28;20033;-72
2024/01/19 00:18:18;;;;;;;2.22;1.02;;;;;;;;;;5020128;28;20104;-72
2024/01/19 00:20:43;;;;;;;1.77;1.05;;;;;;;;;;5031321;28;20280;-72
2024/01/19 00:23:09;;;;;;;2.15;1.13;;;;;;;;;;5039789;28;20484;-72
2024/01/19 00:25:34;;;;;;;1.52;0.88;;;;;;;;;;5034848;28;20070;-72
2024/01/19 00:27:59;;;;;;;1.88;1.00;;;;;;;;;;5043004;28;20036;-72
2024/01/19 00:30:25;;;;;;;2.00;1.02;;;;;;;;;;5043454;28;20029;-72
2024/01/19 00:32:50;;;;;;;1.73;1.00;;;;;;;;;;5012777;28;20041;-72
2024/01/19 00:35:15;;;;;;;3.05;1.20;;;;;;;;;;5030489;28;20493;-72
2024/01/19 00:37:41;;;;;;;1.88;1.02;;;;;;;;;;5039440;28;20038;-72
2024/01/19 00:40:11;;;;;;;1.52;1.08;;;;;;;;;;5040421;28;20044;-72
2024/01/19 00:42:39;;;;;;;2.33;0.90;;;;;;;;;;5035516;28;20173;-72
2024/01/19 00:45:06;;;;;;;2.33;0.90;;;;;;;;;;5037328;28;20033;-72
2024/01/19 00:47:32;;;;;;;2.63;1.15;;;;;;;;;;5043405;28;20032;-72
2024/01/19 00:49:57;;;;;;;2.00;0.98;;;;;;;;;;4998998;28;20505;-72
2024/01/19 00:52:23;;;;;;;2.25;1.10;;;;;;;;;;5026794;28;20082;-72
2024/01/19 00:54:48;;;;;;;2.03;0.93;;;;;;;;;;5032762;28;20052;-73
2024/01/19 00:57:13;;;;;;;1.95;0.88;;;;;;;;;;5021738;28;20135;-72
2024/01/19 00:59:39;;;;;;;1.85;0.90;;;;;;;;;;5020118;28;20613;-73
2024/01/19 01:02:04;;;;;;;2.20;1.05;;;;;;;;;;5020107;28;20366;-72
2024/01/19 01:04:29;;;;;;;2.42;1.10;;;;;;;;;;5033032;28;20128;-73
2024/01/19 01:06:55;;;;;;;1.60;0.93;;;;;;;;;;5014137;28;20025;-72
2024/01/19 01:09:20;;;;;;;1.35;0.80;;;;;;;;;;5011404;28;20067;-73
2024/01/19 01:11:45;;;;;;;1.70;0.88;;;;;;;;;;5013204;28;20033;-72
2024/01/19 01:14:10;;;;;;;1.52;1.00;;;;;;;;;;5017970;28;20029;-73
2024/01/19 01:16:36;;;;;;;1.67;1.08;;;;;;;;;;5031323;28;20028;-72
2024/01/19 01:19:01;;;;;;;1.70;0.90;;;;;;;;;;5038581;28;20028;-74
2024/01/19 01:21:27;;;;;;;2.10;1.10;;;;;;;;;;5037340;28;20021;-71
2024/01/19 01:23:52;;;;;;;2.45;1.10;;;;;;;;;;5033285;28;20029;-73
2024/01/19 01:26:17;;;;;;;1.67;1.00;;;;;;;;;;5012234;28;20029;-72
2024/01/19 01:28:43;;;;;;;1.92;1.00;;;;;;;;;;5024667;28;20029;-72
2024/01/19 01:31:08;;;;;;;1.25;0.73;;;;;;;;;;5030600;28;20104;-72
2024/01/19 01:33:34;;;;;;;2.35;0.90;;;;;;;;;;5029938;28;20025;-72
2024/01/19 01:35:59;;;;;;;2.40;0.93;;;;;;;;;;5036484;28;20021;-71
2024/01/19 01:38:24;;;;;;;1.38;0.80;;;;;;;;;;5033934;28;20509;-72
2024/01/19 01:40:50;;;;;;;1.38;0.77;;;;;;;;;;5028907;28;20024;-72
2024/01/19 01:43:24;;;;;;;2.25;0.70;;;;;;;;;;5014528;28;20124;-72
2024/01/19 01:45:49;;;;;;;2.17;0.93;;;;;;;;;;5019721;28;20026;-72
2024/01/19 01:48:15;;;;;;;2.13;1.10;;;;;;;;;;5044884;28;20033;-72
2024/01/19 01:50:40;;;;;;;1.88;0.90;;;;;;;;;;5015879;28;20114;-73
2024/01/19 01:53:05;;;;;;;1.77;1.00;;;;;;;;;;5015404;28;20556;-72
2024/01/19 01:55:31;;;;;;;1.38;0.75;;;;;;;;;;5023797;28;20017;-72
2024/01/19 01:57:56;;;;;;;1.90;1.05;;;;;;;;;;5028869;28;20025;-72
2024/01/19 02:00:21;;;;;;;1.73;0.90;;;;;;;;;;5011541;28;20020;-72
2024/01/19 02:02:46;;;;;;;1.65;0.88;;;;;;;;;;5019426;28;20381;-72
2024/01/19 02:05:12;;;;;;;1.00;0.50;;;;;;;;;;5035082;28;20089;-73
2024/01/19 02:07:37;;;;;;;2.33;1.00;;;;;;;;;;5030863;28;20036;-72
2024/01/19 02:10:03;;;;;;;1.45;0.90;;;;;;;;;;5037715;28;20017;-71
2024/01/19 02:12:28;;;;;;;1.38;0.70;;;;;;;;;;5036371;28;21595;-74
2024/01/19 02:14:55;;;;;;;2.05;0.73;;;;;;;;;;5035420;28;20947;-72
2024/01/19 02:17:23;;;;;;;1.55;0.93;;;;;;;;;;5042690;28;20056;-72
2024/01/19 02:19:48;;;;;;;3.88;0.88;;;;;;;;;;5031428;28;20037;-72
2024/01/19 02:22:14;;;;;;;1.20;0.60;;;;;;;;;;5034217;28;20037;-72
2024/01/19 02:24:41;;;;;;;2.10;1.00;;;;;;;;;;5036151;28;20052;-72
2024/01/19 02:27:06;;;;;;;1.75;0.80;;;;;;;;;;5031652;28;20117;-72
2024/01/19 02:29:31;;;;;;;1.48;0.93;;;;;;;;;;5039027;28;20474;-72
2024/01/19 02:31:57;;;;;;;1.95;0.90;;;;;;;;;;5040685;28;20040;-72
2024/01/19 02:34:22;;;;;;;1.83;0.80;;;;;;;;;;5030469;28;20100;-72
2024/01/19 02:36:49;;;;;;;1.90;1.00;;;;;;;;;;5038921;28;20068;-71
2024/01/19 02:39:14;;;;;;;1.27;0.75;;;;;;;;;;5035629;28;20048;-71
2024/01/19 02:41:40;;;;;;;2.05;0.80;;;;;;;;;;5028599;28;20029;-72
2024/01/19 02:44:06;;;;;;;1.77;0.80;;;;;;;;;;5037246;28;20041;-71
2024/01/19 02:46:31;;;;;;;1.33;0.80;;;;;;;;;;5028834;28;20522;-72
2024/01/19 02:48:56;;;;;;;1.20;0.70;;;;;;;;;;5030267;28;20608;-72
2024/01/19 02:51:22;;;;;;;1.33;0.80;;;;;;;;;;5044123;28;20029;-72
2024/01/19 02:53:47;;;;;;;1.92;1.00;;;;;;;;;;5026572;28;20112;-71
2024/01/19 02:56:12;;;;;;;1.27;0.90;;;;;;;;;;5037933;28;20104;-72
2024/01/19 02:58:38;;;;;;;1.38;0.75;;;;;;;;;;5035010;28;20628;-72
2024/01/19 03:01:03;;;;;;;2.17;0.82;;;;;;;;;;5026649;28;20030;-73
2024/01/19 03:03:28;;;;;;;1.83;1.00;;;;;;;;;;5010375;28;20056;-72
2024/01/19 03:05:54;;;;;;;1.40;0.70;;;;;;;;;;5048574;28;20033;-72
2024/01/19 03:08:20;;;;;;;1.50;0.70;;;;;;;;;;5041345;28;20042;-72
2024/01/19 03:10:46;;;;;;;2.13;0.80;;;;;;;;;;5012958;28;20041;-72
2024/01/19 03:13:12;;;;;;;1.25;0.60;;;;;;;;;;5030593;28;20045;-72
2024/01/19 03:15:37;;;;;;;1.88;0.80;;;;;;;;;;5032931;28;20052;-73
2024/01/19 03:18:02;;;;;;;1.67;0.73;;;;;;;;;;5023706;28;20037;-72
2024/01/19 03:20:28;;;;;;;1.85;0.82;;;;;;;;;;5029751;28;20578;-74
2024/01/19 03:22:53;;;;;;;1.58;0.80;;;;;;;;;;5043377;28;20523;-73
2024/01/19 03:25:19;;;;;;;1.67;0.90;;;;;;;;;;5029538;28;20052;-73
2024/01/19 03:27:44;;;;;;;1.98;0.70;;;;;;;;;;5032702;28;20055;-73
2024/01/19 03:30:09;;;;;;;2.35;0.80;;;;;;;;;;5046419;28;20503;-72
2024/01/19 03:32:35;;;;;;;2.17;0.70;;;;;;;;;;5024474;28;20049;-73
2024/01/19 03:35:00;;;;;;;1.63;0.73;;;;;;;;;;5033041;28;20485;-72
2024/01/19 03:37:27;;;;;;;1.75;0.70;;;;;;;;;;5043705;28;20051;-72
2024/01/19 03:39:53;;;;;;;1.80;0.80;;;;;;;;;;5034757;28;20562;-72
2024/01/19 03:42:18;;;;;;;1.33;0.80;;;;;;;;;;5039353;28;20079;-73
2024/01/19 03:44:43;;;;;;;1.65;0.70;;;;;;;;;;5019468;28;20037;-73
2024/01/19 03:47:09;;;;;;;1.05;0.70;;;;;;;;;;5025976;28;20056;-72
2024/01/19 03:49:34;;;;;;;1.40;0.70;;;;;;;;;;5038714;28;20037;-72
2024/01/19 03:52:06;;;;;;;1.77;0.80;;;;;;;;;;5030418;28;20049;-73
2024/01/19 03:54:34;;;;;;;1.55;0.88;;;;;;;;;;5039459;28;20044;-72
2024/01/19 03:57:01;;;;;;;1.63;0.70;;;;;;;;;;5010596;28;20044;-72
2024/01/19 03:59:27;;;;;;;1.27;0.70;;;;;;;;;;5013965;28;20038;-73
2024/01/19 04:01:53;;;;;;;1.85;0.80;;;;;;;;;;5032717;28;20036;-73
2024/01/19 04:04:19;;;;;;;1.40;0.70;;;;;;;;;;5040771;28;20047;-72
2024/01/19 04:06:44;;;;;;;1.17;0.70;;;;;;;;;;5036188;28;20044;-73
2024/01/19 04:09:10;;;;;;;1.23;0.73;;;;;;;;;;5038385;28;20037;-72
2024/01/19 04:11:36;;;;;;;1.25;0.80;;;;;;;;;;5030569;28;20041;-72
2024/01/19 04:14:01;;;;;;;1.05;0.70;;;;;;;;;;5023824;28;20045;-72
2024/01/19 04:16:27;;;;;;;0.90;0.52;;;;;;;;;;5041269;28;20025;-72
2024/01/19 04:18:52;;;;;;;1.20;0.80;;;;;;;;;;5035813;28;20048;-73
2024/01/19 04:21:18;;;;;;;1.85;0.65;;;;;;;;;;5034030;28;20040;-73
2024/01/19 04:23:44;;;;;;;1.10;0.55;;;;;;;;;;5042192;28;20501;-73
2024/01/19 04:26:10;;;;;;;3.03;0.65;;;;;;;;;;5035667;28;20131;-73
2024/01/19 04:28:35;;;;;;;1.70;0.75;;;;;;;;;;5033914;28;20137;-73
2024/01/19 04:31:00;;;;;;;2.00;0.80;;;;;;;;;;5028229;28;20121;-73
2024/01/19 04:33:26;;;;;;;1.35;0.70;;;;;;;;;;5045687;28;20521;-73
2024/01/19 04:35:51;;;;;;;1.08;0.70;;;;;;;;;;5034770;28;20147;-72
2024/01/19 04:38:16;;;;;;;1.40;0.75;;;;;;;;;;5018399;28;20025;-73
2024/01/19 04:40:42;;;;;;;1.10;0.60;;;;;;;;;;5035053;28;20401;-74
2024/01/19 04:43:07;;;;;;;1.42;0.85;;;;;;;;;;5044410;28;20057;-74
2024/01/19 04:45:32;;;;;;;1.33;0.80;;;;;;;;;;5029226;28;20055;-74
2024/01/19 04:47:58;;;;;;;0.82;0.52;;;;;;;;;;5042583;28;20029;-71
2024/01/19 04:50:23;;;;;;;1.65;0.80;;;;;;;;;;5028202;28;20113;-71
2024/01/19 04:52:48;;;;;;;1.20;0.70;;;;;;;;;;5041098;28;20079;-71
2024/01/19 04:55:14;;;;;;;1.70;0.80;;;;;;;;;;5013572;28;20042;-71
2024/01/19 04:57:39;;;;;;;1.20;0.60;;;;;;;;;;5043416;28;20506;-71
2024/01/19 05:00:05;;;;;;;1.27;0.70;;;;;;;;;;5028085;28;20033;-71
2024/01/19 05:02:32;;;;;;;1.27;0.50;;;;;;;;;;5038485;28;20041;-72
2024/01/19 05:04:58;;;;;;;1.33;0.52;;;;;;;;;;5014796;28;20033;-72
2024/01/19 05:07:23;;;;;;;1.55;0.85;;;;;;;;;;5032119;28;20030;-72
2024/01/19 05:09:49;;;;;;;0.93;0.63;;;;;;;;;;5028310;28;20065;-71
2024/01/19 05:12:14;;;;;;;1.88;0.70;;;;;;;;;;5016066;28;20096;-71
2024/01/19 05:14:39;;;;;;;1.52;0.90;;;;;;;;;;5028092;28;20121;-71
2024/01/19 05:17:05;;;;;;;1.38;0.65;;;;;;;;;;5044301;28;20116;-72
2024/01/19 05:19:30;;;;;;;1.33;0.73;;;;;;;;;;5033235;28;20399;-71
2024/01/19 05:21:55;;;;;;;1.17;0.80;;;;;;;;;;5033410;28;20501;-72
2024/01/19 05:24:21;;;;;;;1.30;0.70;;;;;;;;;;5041296;28;20053;-72
2024/01/19 05:26:46;;;;;;;1.17;0.70;;;;;;;;;;5045369;28;20044;-72
2024/01/19 05:29:11;;;;;;;1.02;0.60;;;;;;;;;;5016402;28;20034;-72
2024/01/19 05:31:37;;;;;;;1.35;0.85;;;;;;;;;;5029436;28;20524;-72
2024/01/19 05:34:02;;;;;;;1.08;0.40;;;;;;;;;;5036268;28;20489;-72
2024/01/19 05:36:28;;;;;;;1.80;0.65;;;;;;;;;;5031063;28;20064;-72
2024/01/19 05:38:53;;;;;;;1.48;0.88;;;;;;;;;;5027053;28;20038;-72
2024/01/19 05:41:19;;;;;;;0.95;0.57;;;;;;;;;;5028090;28;20092;-73
2024/01/19 05:43:45;;;;;;;1.27;0.80;;;;;;;;;;5041045;28;20025;-71
2024/01/19 05:46:11;;;;;;;1.33;0.57;;;;;;;;;;5031554;28;20552;-72
2024/01/19 05:48:36;;;;;;;1.50;0.80;;;;;;;;;;5012197;28;21372;-73
2024/01/19 05:51:02;;;;;;;1.40;0.70;;;;;;;;;;5024507;28;20682;-73
2024/01/19 05:53:27;;;;;;;1.08;0.60;;;;;;;;;;5032324;28;20044;-72
2024/01/19 05:55:52;;;;;;;1.48;0.95;;;;;;;;;;5029000;28;20541;-73
2024/01/19 05:58:18;;;;;;;2.40;0.80;;;;;;;;;;5027056;28;20041;-73
2024/01/19 06:00:43;;;;;;;1.65;0.93;;;;;;;;;;5029674;28;20056;-73
2024/01/19 06:03:08;;;;;;;1.17;0.63;;;;;;;;;;5027271;28;20473;-73
2024/01/19 06:05:34;;;;;;;1.23;0.75;;;;;;;;;;5028577;28;20164;-73
2024/01/19 06:07:59;;;;;;;1.73;0.60;;;;;;;;;;5029958;28;20034;-73
2024/01/19 06:10:24;;;;;;;1.08;0.60;;;;;;;;;;5030550;28;20038;-73
2024/01/19 06:12:50;;;;;;;1.67;0.93;;;;;;;;;;5030947;28;20053;-74
2024/01/19 06:15:15;;;;;;;1.13;0.60;;;;;;;;;;5029010;28;20033;-73
2024/01/19 06:17:40;;;;;;;1.25;0.70;;;;;;;;;;5008325;28;20041;-73
2024/01/19 06:20:06;;;;;;;3.53;0.77;;;;;;;;;;5029104;28;20051;-73
2024/01/19 06:22:32;;;;;;;1.67;0.90;;;;;;;;;;5011511;28;20124;-73
2024/01/19 06:24:58;;;;;;;1.83;0.82;;;;;;;;;;5023938;28;20041;-73
2024/01/19 06:27:23;;;;;;;2.00;1.10;;;;;;;;;;5007165;28;20037;-73
2024/01/19 06:29:48;;;;;;;1.60;0.73;;;;;;;;;;5008160;28;20069;-73
2024/01/19 06:32:14;;;;;;;1.40;0.88;;;;;;;;;;5026823;28;20790;-78
2024/01/19 06:34:41;;;;;;;1.67;0.93;;;;;;;;;;5023284;28;20056;-73
2024/01/19 06:37:07;;;;;;;1.95;1.00;;;;;;;;;;5020601;28;20038;-75
2024/01/19 06:39:32;;;;;;;2.38;0.98;;;;;;;;;;5021685;28;20033;-75
2024/01/19 06:41:57;;;;;;;1.98;0.88;;;;;;;;;;5018623;28;20025;-75
2024/01/19 06:44:22;;;;;;;2.00;1.00;;;;;;;;;;5019615;28;20474;-73
2024/01/19 06:46:48;;;;;;;1.58;1.05;;;;;;;;;;5005918;28;20068;-72
2024/01/19 06:49:13;;;;;;;1.73;0.93;;;;;;;;;;5021095;28;20034;-73
2024/01/19 06:51:39;;;;;;;1.65;0.80;;;;;;;;;;5022360;28;20026;-74
2024/01/19 06:54:04;;;;;;;3.72;0.82;;;;;;;;;;5040702;28;20049;-76
2024/01/19 06:56:29;;;;;;;1.48;0.80;;;;;;;;;;5041540;28;20030;-74
2024/01/19 06:58:56;;;;;;;1.25;0.75;;;;;;;;;;5041484;28;20106;-75
2024/01/19 07:01:22;;;;;;;1.85;1.00;;;;;;;;;;5032623;28;20041;-74
2024/01/19 07:03:48;;;;;;;3.33;0.90;;;;;;;;;;5023488;28;20037;-72
2024/01/19 07:06:13;;;;;;;1.70;0.93;;;;;;;;;;5024242;28;20034;-74
2024/01/19 07:08:38;;;;;;;1.65;0.90;;;;;;;;;;5023727;28;20049;-73
2024/01/19 07:11:04;;;;;;;2.15;1.10;;;;;;;;;;5023177;28;20636;-74
2024/01/19 07:13:29;;;;;;;1.90;0.80;;;;;;;;;;5007613;28;20073;-73
2024/01/19 07:15:56;;;;;;;1.67;0.82;;;;;;;;;;5021141;28;20455;-73
2024/01/19 07:18:21;;;;;;;2.28;1.02;;;;;;;;;;5021162;28;20033;-74
2024/01/19 07:20:48;;;;;;;1.85;1.13;;;;;;;;;;5024932;28;20359;-75
2024/01/19 07:23:13;;;;;;;1.70;1.23;;;;;;;;;;5023240;28;20485;-75
2024/01/19 07:25:39;;;;;;;1.98;1.13;;;;;;;;;;5024402;28;20188;-75
2024/01/19 07:28:06;;;;;;;1.27;0.88;;;;;;;;;;5025452;28;20047;-75
2024/01/19 07:30:31;;;;;;;2.03;1.02;;;;;;;;;;5011250;28;20125;-75
2024/01/19 07:32:57;;;;;;;1.48;0.90;;;;;;;;;;5021951;28;20438;-74
2024/01/19 07:35:22;;;;;;;2.85;1.40;;;;;;;;;;5022436;28;20560;-75
2024/01/19 07:37:47;;;;;;;2.13;1.17;;;;;;;;;;5020598;28;20366;-75
2024/01/19 07:40:13;;;;;;;4.85;1.20;;;;;;;;;;5020607;28;20037;-75
2024/01/19 07:42:38;;;;;;;1.88;0.95;;;;;;;;;;5019858;28;20038;-74
2024/01/19 07:45:04;;;;;;;2.10;1.13;;;;;;;;;;5020794;28;20103;-74
2024/01/19 07:47:32;;;;;;;3.35;1.15;;;;;;;;;;5021384;28;20073;-74
2024/01/19 07:49:57;;;;;;;2.78;0.85;;;;;;;;;;5020708;28;20945;-73
2024/01/19 07:52:22;;;;;;;2.13;1.10;;;;;;;;;;5024423;28;20053;-74
2024/01/19 07:54:48;;;;;;;2.33;1.00;;;;;;;;;;5023426;28;20442;-73
2024/01/19 07:57:13;;;;;;;3.17;1.30;;;;;;;;;;5020550;28;20072;-77
2024/01/19 07:59:39;;;;;;;2.00;0.90;;;;;;;;;;5023502;28;20041;-73
2024/01/19 08:02:04;;;;;;;2.65;1.10;;;;;;;;;;5022757;28;20100;-72
2024/01/19 08:04:30;;;;;;;3.65;1.20;;;;;;;;;;5021100;28;20548;-70
2024/01/19 08:06:55;;;;;;;2.45;1.20;;;;;;;;;;5021901;28;20061;-69
2024/01/19 08:09:21;;;;;;;2.45;1.38;;;;;;;;;;5023774;28;20167;-71
2024/01/19 08:11:46;;;;;;;2.55;1.48;;;;;;;;;;5022585;28;20034;-71
2024/01/19 08:14:11;;;;;;;1.67;1.20;;;;;;;;;;5022566;28;20056;-70
2024/01/19 08:16:37;;;;;;;2.83;1.35;;;;;;;;;;5021668;28;20029;-71
2024/01/19 08:19:02;;;;;;;3.45;1.25;;;;;;;;;;5023734;28;20033;-71
2024/01/19 08:21:28;;;;;;;2.33;1.40;;;;;;;;;;5022271;28;20092;-71
2024/01/19 08:23:53;;;;;;;2.25;1.40;;;;;;;;;;5023724;28;20701;-71
2024/01/19 08:26:19;;;;;;;2.97;1.40;;;;;;;;;;5021763;28;20499;-70
2024/01/19 08:28:46;;;;;;;2.53;1.40;;;;;;;;;;5018708;28;20509;-71
2024/01/19 08:31:12;;;;;;;3.20;1.55;;;;;;;;;;5017824;28;20163;-70
2024/01/19 08:33:37;;;;;;;2.65;1.50;;;;;;;;;;5019834;28;20081;-70
2024/01/19 08:36:03;;;;;;;2.28;1.50;;;;;;;;;;5021587;28;20049;-71
2024/01/19 08:38:28;;;;;;;2.63;1.25;;;;;;;;;;5018795;28;20037;-70
2024/01/19 08:40:54;;;;;;;2.63;1.35;;;;;;;;;;5019631;28;20529;-70
2024/01/19 08:43:19;;;;;;;2.65;1.40;;;;;;;;;;5020249;28;20038;-70
2024/01/19 08:45:45;;;;;;;3.15;1.25;;;;;;;;;;5019649;28;20123;-70
2024/01/19 08:48:10;;;;;;;2.92;1.33;;;;;;;;;;5020429;28;20037;-70
2024/01/19 08:50:35;;;;;;;3.45;1.48;;;;;;;;;;5019243;28;20068;-70
2024/01/19 08:53:02;;;;;;;2.30;1.05;;;;;;;;;;5021750;28;20041;-70
2024/01/19 08:55:28;;;;;;;2.00;1.17;;;;;;;;;;5020829;28;20114;-69
2024/01/19 08:57:54;;;;;;;2.80;1.30;;;;;;;;;;4992791;28;20445;-69
2024/01/19 09:00:19;;;;;;;2.10;1.20;;;;;;;;;;5021103;28;20041;-71
2024/01/19 09:02:46;;;;;;;3.20;1.60;;;;;;;;;;5019845;28;20137;-70
2024/01/19 09:05:12;;;;;;;2.13;1.30;;;;;;;;;;4997042;28;21554;-70
2024/01/19 09:07:37;;;;;;;3.28;1.40;;;;;;;;;;5021861;28;20571;-71
2024/01/19 09:10:03;;;;;;;3.40;1.35;;;;;;;;;;5017193;28;20039;-70
2024/01/19 09:12:28;;;;;;;2.95;1.60;;;;;;;;;;5019569;28;20079;-71
2024/01/19 09:14:54;;;;;;;3.20;1.33;;;;;;;;;;4997615;28;20124;-70
2024/01/19 09:17:19;;;;;;;4.35;1.50;;;;;;;;;;5020120;28;20037;-70
2024/01/19 09:19:44;;;;;;;2.63;1.60;;;;;;;;;;5003425;28;20141;-71
2024/01/19 09:22:10;;;;;;;2.35;1.23;;;;;;;;;;5012264;28;20073;-71
2024/01/19 09:24:35;;;;;;;2.55;1.33;;;;;;;;;;5030895;28;20481;-70
2024/01/19 09:27:00;;;;;;;2.92;1.30;;;;;;;;;;5042042;28;20432;-71
2024/01/19 09:29:26;;;;;;;3.58;1.27;;;;;;;;;;5040524;28;20053;-71
2024/01/19 09:31:51;;;;;;;2.42;1.60;;;;;;;;;;5031385;28;20034;-71
2024/01/19 09:34:16;;;;;;;3.72;1.60;;;;;;;;;;5030349;28;20425;-70
2024/01/19 09:36:42;;;;;;;2.30;1.20;;;;;;;;;;5013188;28;20040;-70
2024/01/19 09:39:07;;;;;;;2.45;1.42;;;;;;;;;;4994623;28;20137;-69
2024/01/19 09:41:47;;;;;;;2.65;1.58;;;;;;;;;;5007231;28;20057;-69
2024/01/19 09:44:13;;;;;;;3.22;1.50;;;;;;;;;;5009762;28;20046;-69
2024/01/19 09:46:50;;;;;;;2.83;1.73;;;;;;;;;;4993303;28;20391;-69
2024/01/19 09:49:18;;;;;;;3.08;1.27;;;;;;;;;;5020555;28;20036;-69
2024/01/19 09:51:56;;;;;;;3.67;1.60;;;;;;;;;;5004733;28;20034;-70
2024/01/19 09:54:28;;;;;;;4.28;1.50;;;;;;;;;;5006794;28;20053;-70
2024/01/19 09:56:53;;;;;;;3.33;1.42;;;;;;;;;;4998705;28;20174;-70
2024/01/19 09:59:19;;;;;;;2.75;1.65;;;;;;;;;;5000573;28;20109;-71
2024/01/19 10:01:44;;;;;;;3.35;1.63;;;;;;;;;;4964518;28;20040;-73
2024/01/19 10:04:11;;;;;;;4.35;1.70;;;;;;;;;;4990471;28;20136;-71
2024/01/19 10:06:37;;;;;;;2.70;1.40;;;;;;;;;;4998328;28;20081;-70
2024/01/19 10:09:03;;;;;;;2.38;1.17;;;;;;;;;;5000709;28;20135;-70
2024/01/19 10:11:29;;;;;;;2.85;1.45;;;;;;;;;;4999381;28;20493;-70
2024/01/19 10:13:54;;;;;;;4.90;1.40;;;;;;;;;;5004481;28;20048;-70
2024/01/19 10:16:20;;;;;;;2.50;1.42;;;;;;;;;;4986938;28;20037;-70
2024/01/19 10:18:45;;;;;;;3.75;1.52;;;;;;;;;;5003597;28;20042;-69
2024/01/19 10:21:12;;;;;;;3.30;1.65;;;;;;;;;;5003612;28;20064;-70
2024/01/19 10:23:41;;;;;;;3.33;1.52;;;;;;;;;;5005342;28;20076;-71
2024/01/19 10:26:14;;;;;;;3.00;1.50;;;;;;;;;;5006294;28;20042;-70
2024/01/19 10:28:39;;;;;;;3.47;1.35;;;;;;;;;;5003838;28;20076;-72
2024/01/19 10:31:18;;;;;;;3.10;1.40;;;;;;;;;;5004246;28;20046;-71
2024/01/19 10:33:50;;;;;;;2.95;1.23;;;;;;;;;;4988608;28;20050;-69
2024/01/19 10:36:16;;;;;;;2.80;1.30;;;;;;;;;;4994354;28;20089;-71
2024/01/19 10:38:41;;;;;;;2.70;1.70;;;;;;;;;;5004753;28;20751;-68
2024/01/19 10:41:15;;;;;;;3.72;1.60;;;;;;;;;;5022354;28;20045;-68
2024/01/19 10:43:41;;;;;;;5.15;2.70;;;;;;;;;;5022404;28;20076;-73
2024/01/19 10:46:19;;;;;;;3.33;1.85;;;;;;;;;;5022414;28;20144;-70
2024/01/19 10:48:46;;;;;;;3.75;1.70;;;;;;;;;;5022614;28;20034;-69
2024/01/19 10:51:13;;;;;;;3.40;1.70;;;;;;;;;;5022320;28;20060;-70
2024/01/19 10:53:38;;;;;;;3.58;1.92;;;;;;;;;;5020069;28;20157;-69
2024/01/19 10:56:04;;;;;;;2.45;1.33;;;;;;;;;;5021045;28;20033;-69
2024/01/19 10:58:32;;;;;;;2.08;1.30;;;;;;;;;;5021491;28;20056;-69
2024/01/19 11:01:11;;;;;;;2.83;1.33;;;;;;;;;;5023130;28;20037;-70
2024/01/19 11:03:36;;;;;;;3.05;1.40;;;;;;;;;;5022460;28;20163;-69
2024/01/19 11:06:03;;;;;;;2.28;1.48;;;;;;;;;;5020840;28;20057;-71
2024/01/19 11:08:31;;;;;;;2.83;1.50;;;;;;;;;;5021666;28;20118;-70
2024/01/19 11:10:56;;;;;;;2.85;1.50;;;;;;;;;;5020393;28;20929;-70
2024/01/19 11:13:22;;;;;;;2.85;1.60;;;;;;;;;;5020333;28;20042;-70
2024/01/19 11:15:51;;;;;;;2.83;1.45;;;;;;;;;;5020481;28;20028;-70
2024/01/19 11:18:16;;;;;;;2.78;1.50;;;;;;;;;;5020914;28;20120;-70
2024/01/19 11:20:41;;;;;;;3.95;1.83;;;;;;;;;;5020933;28;20112;-70
2024/01/19 11:23:07;;;;;;;3.33;1.63;;;;;;;;;;5021128;28;20115;-73
2024/01/19 11:25:35;;;;;;;3.67;1.60;;;;;;;;;;5021735;28;20029;-70
2024/01/19 11:28:05;;;;;;;5.30;1.75;;;;;;;;;;5022123;28;20526;-70
2024/01/19 11:30:48;;;;;;;3.17;1.60;;;;;;;;;;5006930;28;20021;-72
2024/01/19 11:33:18;;;;;;;2.80;1.63;;;;;;;;;;5020612;28;20111;-71
2024/01/19 11:35:48;;;;;;;2.88;1.50;;;;;;;;;;5023800;28;20038;-70
2024/01/19 11:38:33;;;;;;;3.30;1.40;;;;;;;;;;5022356;28;20034;-70
2024/01/19 11:40:59;;;;;;;2.42;1.58;;;;;;;;;;5021503;28;20045;-70
2024/01/19 11:43:40;;;;;;;2.78;1.25;;;;;;;;;;5021339;28;20105;-71
2024/01/19 11:46:09;;;;;;;2.85;1.60;;;;;;;;;;5020211;28;20037;-69
2024/01/19 11:48:43;;;;;;;3.47;1.67;;;;;;;;;;5022281;28;20088;-69
2024/01/19 11:51:27;;;;;;;3.10;1.48;;;;;;;;;;5022008;28;20042;-70
2024/01/19 11:53:53;;;;;;;2.53;1.50;;;;;;;;;;5021883;28;20199;-71
2024/01/19 11:56:21;;;;;;;2.75;1.50;;;;;;;;;;5022569;28;20105;-72
2024/01/19 11:58:47;;;;;;;4.05;1.52;;;;;;;;;;5023426;28;20044;-70
2024/01/19 12:01:12;;;;;;;4.10;1.45;;;;;;;;;;5022326;28;20034;-70
2024/01/19 12:03:38;;;;;;;4.55;1.40;;;;;;;;;;5022775;28;20037;-70
2024/01/19 12:06:04;;;;;;;3.67;1.75;;;;;;;;;;5021467;28;20025;-71
2024/01/19 12:08:29;;;;;;;3.95;1.77;;;;;;;;;;5019865;28;20056;-69
2024/01/19 12:11:05;;;;;;;4.28;1.55;;;;;;;;;;5022447;28;20116;-70
2024/01/19 12:13:31;;;;;;;2.88;1.30;;;;;;;;;;5019731;28;20107;-70
2024/01/19 12:15:56;;;;;;;2.70;1.30;;;;;;;;;;5004908;28;20054;-70
2024/01/19 12:18:22;;;;;;;2.40;1.30;;;;;;;;;;4999900;28;20563;-70
2024/01/19 12:20:47;;;;;;;2.47;1.20;;;;;;;;;;5003009;28;20029;-69
2024/01/19 12:23:16;;;;;;;3.40;1.55;;;;;;;;;;5002808;28;20391;-69
2024/01/19 12:25:41;;;;;;;4.13;1.60;;;;;;;;;;5018544;28;20071;-71
2024/01/19 12:28:06;;;;;;;3.45;1.40;;;;;;;;;;5020481;28;20671;-70
2024/01/19 12:30:32;;;;;;;3.67;1.17;;;;;;;;;;5021375;28;20030;-70
2024/01/19 12:32:58;;;;;;;2.47;1.27;;;;;;;;;;5018127;28;20477;-70
2024/01/19 12:35:23;;;;;;;2.75;1.30;;;;;;;;;;5020480;28;20186;-70
2024/01/19 12:37:48;;;;;;;3.40;1.42;;;;;;;;;;5022115;28;20064;-70
2024/01/19 12:40:14;;;;;;;3.87;1.40;;;;;;;;;;5021501;28;20568;-70
2024/01/19 12:42:41;;;;;;;3.60;1.48;;;;;;;;;;5018527;28;20292;-70
2024/01/19 12:45:07;;;;;;;3.20;1.23;;;;;;;;;;5019008;28;20069;-71
2024/01/19 12:47:32;;;;;;;2.50;1.33;;;;;;;;;;5020515;28;20529;-69
2024/01/19 12:49:58;;;;;;;2.72;1.20;;;;;;;;;;5020261;28;20082;-70
2024/01/19 12:52:24;;;;;;;2.97;1.38;;;;;;;;;;5019823;28;20429;-71
2024/01/19 12:54:49;;;;;;;3.08;1.38;;;;;;;;;;5019898;28;20029;-70
2024/01/19 12:57:18;;;;;;;2.72;1.15;;;;;;;;;;5019620;28;20037;-70
2024/01/19 12:59:43;;;;;;;3.25;1.52;;;;;;;;;;5016141;28;20055;-71
2024/01/19 13:02:12;;;;;;;2.45;1.10;;;;;;;;;;5018941;28;20037;-70
2024/01/19 13:04:37;;;;;;;2.25;1.00;;;;;;;;;;5000886;28;20291;-70
2024/01/19 13:07:03;;;;;;;4.72;1.27;;;;;;;;;;5000481;28;20053;-75
2024/01/19 13:09:28;;;;;;;2.45;1.10;;;;;;;;;;5002199;28;20568;-75
2024/01/19 13:12:07;;;;;;;3.80;1.33;;;;;;;;;;5000130;28;20145;-72
2024/01/19 13:14:34;;;;;;;3.75;1.48;;;;;;;;;;5002107;28;20652;-73
2024/01/19 13:17:03;;;;;;;3.85;1.10;;;;;;;;;;5002639;28;20053;-74
2024/01/19 13:19:29;;;;;;;1.85;0.90;;;;;;;;;;5021846;28;20108;-75
2024/01/19 13:21:55;;;;;;;4.32;1.15;;;;;;;;;;4998121;28;20068;-74
2024/01/19 13:24:20;;;;;;;3.15;1.15;;;;;;;;;;4997141;28;20049;-74
2024/01/19 13:26:56;;;;;;;2.47;1.15;;;;;;;;;;5014159;28;20041;-74
2024/01/19 13:29:21;;;;;;;6.18;1.20;;;;;;;;;;5005739;28;20026;-75
2024/01/19 13:31:47;;;;;;;2.30;0.98;;;;;;;;;;5009502;28;20037;-75
2024/01/19 13:34:12;;;;;;;2.92;0.90;;;;;;;;;;5004371;28;20084;-74
2024/01/19 13:36:38;;;;;;;3.08;1.15;;;;;;;;;;5025117;28;20037;-74
2024/01/19 13:39:03;;;;;;;4.18;1.30;;;;;;;;;;5043911;28;20139;-75
2024/01/19 13:41:29;;;;;;;2.78;1.08;;;;;;;;;;5050423;28;20033;-75
2024/01/19 13:43:54;;;;;;;3.35;1.23;;;;;;;;;;5052031;28;20037;-74
2024/01/19 13:46:19;;;;;;;2.25;0.80;;;;;;;;;;5029123;28;20041;-73
2024/01/19 13:48:45;;;;;;;2.55;0.90;;;;;;;;;;5054205;28;20049;-75
2024/01/19 13:51:10;;;;;;;2.67;1.27;;;;;;;;;;5049952;28;20124;-74
2024/01/19 13:53:36;;;;;;;3.55;1.30;;;;;;;;;;5037567;28;20144;-74
2024/01/19 13:56:01;;;;;;;2.85;1.00;;;;;;;;;;5027054;28;20041;-74
2024/01/19 13:58:26;;;;;;;2.80;0.90;;;;;;;;;;5014294;28;20045;-75
2024/01/19 14:00:53;;;;;;;2.33;1.00;;;;;;;;;;4998686;28;20045;-75
2024/01/19 14:03:18;;;;;;;3.33;1.10;;;;;;;;;;4996027;28;20100;-75
2024/01/19 14:05:58;;;;;;;2.75;1.10;;;;;;;;;;5017392;28;20033;-76
2024/01/19 14:08:24;;;;;;;4.65;1.20;;;;;;;;;;5027028;28;20038;-76
2024/01/19 14:10:52;;;;;;;2.95;1.05;;;;;;;;;;5005648;28;20509;-76
2024/01/19 14:13:18;;;;;;;2.63;1.00;;;;;;;;;;4994275;28;20120;-75
2024/01/19 14:15:44;;;;;;;3.35;1.10;;;;;;;;;;5023123;28;20033;-76
2024/01/19 14:18:10;;;;;;;1.95;1.00;;;;;;;;;;4992606;28;20052;-74
2024/01/19 14:20:35;;;;;;;2.33;0.82;;;;;;;;;;5008360;28;20038;-75
2024/01/19 14:23:01;;;;;;;3.88;1.10;;;;;;;;;;5024243;28;20040;-74
2024/01/19 14:25:26;;;;;;;2.13;0.90;;;;;;;;;;5017416;28;20042;-76
2024/01/19 14:27:52;;;;;;;1.63;0.93;;;;;;;;;;5006915;28;20061;-76
2024/01/19 14:30:17;;;;;;;3.92;1.17;;;;;;;;;;5007750;28;20044;-76
2024/01/19 14:32:42;;;;;;;2.45;1.10;;;;;;;;;;5006988;28;20473;-75
2024/01/19 14:35:08;;;;;;;4.85;1.13;;;;;;;;;;4987300;28;20034;-75
2024/01/19 14:37:33;;;;;;;3.58;1.00;;;;;;;;;;5016160;28;20029;-75